sensor_id;sensor_type;location;lat;lon;timestamp;pressure;altitude;pressure_sealevel;temperature;humidity
70546;BME280;58098;51.680;5.134;2023-08-12T00:00:15;101832.41;;;20.47;100.00
70546;BME280;58098;51.680;5.134;2023-08-12T00:02:41;101818.63;;;20.35;100.00
70546;BME280;58098;51.680;5.134;2023-08-12T00:05:07;101829.75;;;20.47;100.00
70546;BME280;58098;51.680;5.134;2023-08-12T00:07:36;101837.22;;;20.52;100.00
70546;BME280;58098;51.680;5.134;2023-08-12T00:10:02;101832.25;;;20.49;100.00
70546;BME280;58098;51.680;5.134;2023-08-12T00:12:32;101823.78;;;20.45;100.00
70546;BME280;58098;51.680;5.134;2023-08-12T00:14:58;101818.78;;;20.42;100.00
70546;BME280;58098;51.680;5.134;2023-08-12T00:17:23;101823.97;;;20.44;100.00
70546;BME280;58098;51.680;5.134;2023-08-12T00:19:48;101819.50;;;20.44;100.00
70546;BME280;58098;51.680;5.134;2023-08-12T00:22:14;101808.88;;;20.44;100.00
70546;BME280;58098;51.680;5.134;2023-08-12T00:24:39;101780.31;;;20.30;100.00
70546;BME280;58098;51.680;5.134;2023-08-12T00:27:05;101801.91;;;20.43;100.00
70546;BME280;58098;51.680;5.134;2023-08-12T00:29:32;101794.13;;;20.42;100.00
70546;BME280;58098;51.680;5.134;2023-08-12T00:31:58;101785.81;;;20.36;100.00
70546;BME280;58098;51.680;5.134;2023-08-12T00:34:23;101782.50;;;20.34;100.00
70546;BME280;58098;51.680;5.134;2023-08-12T00:36:48;101794.94;;;20.42;100.00
70546;BME280;58098;51.680;5.134;2023-08-12T00:39:14;101777.88;;;20.36;100.00
70546;BME280;58098;51.680;5.134;2023-08-12T00:41:39;101783.31;;;20.35;100.00
70546;BME280;58098;51.680;5.134;2023-08-12T00:44:04;101759.91;;;20.22;100.00
70546;BME280;58098;51.680;5.134;2023-08-12T00:46:30;101775.00;;;20.30;100.00
70546;BME280;58098;51.680;5.134;2023-08-12T00:48:56;101778.50;;;20.30;100.00
70546;BME280;58098;51.680;5.134;2023-08-12T00:51:21;101774.03;;;20.31;100.00
70546;BME280;58098;51.680;5.134;2023-08-12T00:53:47;101774.56;;;20.34;100.00
70546;BME280;58098;51.680;5.134;2023-08-12T00:56:13;101777.34;;;20.33;100.00
70546;BME280;58098;51.680;5.134;2023-08-12T00:58:39;101768.06;;;20.29;100.00
70546;BME280;58098;51.680;5.134;2023-08-12T01:01:05;101768.91;;;20.29;100.00
70546;BME280;58098;51.680;5.134;2023-08-12T01:03:31;101767.53;;;20.25;100.00
70546;BME280;58098;51.680;5.134;2023-08-12T01:05:56;101755.91;;;20.18;100.00
70546;BME280;58098;51.680;5.134;2023-08-12T01:08:26;101756.41;;;20.22;100.00
70546;BME280;58098;51.680;5.134;2023-08-12T01:11:01;101757.25;;;20.22;100.00
70546;BME280;58098;51.680;5.134;2023-08-12T01:13:50;101765.91;;;20.24;100.00
70546;BME280;58098;51.680;5.134;2023-08-12T01:16:21;101754.47;;;20.24;100.00
70546;BME280;58098;51.680;5.134;2023-08-12T01:18:49;101744.94;;;20.13;100.00
70546;BME280;58098;51.680;5.134;2023-08-12T01:21:20;101747.63;;;20.21;100.00
70546;BME280;58098;51.680;5.134;2023-08-12T01:23:46;101740.00;;;20.18;100.00
70546;BME280;58098;51.680;5.134;2023-08-12T01:26:11;101729.69;;;20.15;100.00
70546;BME280;58098;51.680;5.134;2023-08-12T01:28:37;101728.38;;;20.11;100.00
70546;BME280;58098;51.680;5.134;2023-08-12T01:31:12;101743.66;;;20.17;100.00
70546;BME280;58098;51.680;5.134;2023-08-12T01:33:55;101741.66;;;20.19;100.00
70546;BME280;58098;51.680;5.134;2023-08-12T01:36:24;101726.69;;;20.10;100.00
70546;BME280;58098;51.680;5.134;2023-08-12T01:38:51;101723.59;;;20.15;100.00
70546;BME280;58098;51.680;5.134;2023-08-12T01:41:21;101709.31;;;20.08;100.00
70546;BME280;58098;51.680;5.134;2023-08-12T01:43:48;101714.47;;;20.09;100.00
70546;BME280;58098;51.680;5.134;2023-08-12T01:46:13;101722.09;;;20.12;100.00
70546;BME280;58098;51.680;5.134;2023-08-12T01:48:38;101729.03;;;20.13;100.00
70546;BME280;58098;51.680;5.134;2023-08-12T01:51:04;101713.28;;;20.04;100.00
70546;BME280;58098;51.680;5.134;2023-08-12T01:53:29;101714.47;;;20.09;100.00
70546;BME280;58098;51.680;5.134;2023-08-12T01:55:55;101715.59;;;20.07;100.00
70546;BME280;58098;51.680;5.134;2023-08-12T01:58:20;101716.59;;;20.06;100.00
70546;BME280;58098;51.680;5.134;2023-08-12T02:00:45;101714.13;;;20.04;100.00
70546;BME280;58098;51.680;5.134;2023-08-12T02:03:11;101704.13;;;19.98;100.00
70546;BME280;58098;51.680;5.134;2023-08-12T02:05:36;101705.16;;;19.97;100.00
70546;BME280;58098;51.680;5.134;2023-08-12T02:08:06;101709.78;;;20.03;100.00
70546;BME280;58098;51.680;5.134;2023-08-12T02:10:31;101711.47;;;20.04;100.00
70546;BME280;58098;51.680;5.134;2023-08-12T02:12:56;101700.19;;;20.02;100.00
70546;BME280;58098;51.680;5.134;2023-08-12T02:15:22;101711.16;;;20.07;100.00
70546;BME280;58098;51.680;5.134;2023-08-12T02:17:47;101707.50;;;20.08;100.00
70546;BME280;58098;51.680;5.134;2023-08-12T02:20:13;101697.22;;;20.05;100.00
70546;BME280;58098;51.680;5.134;2023-08-12T02:22:38;101688.75;;;20.02;100.00
70546;BME280;58098;51.680;5.134;2023-08-12T02:25:04;101696.22;;;20.06;100.00
70546;BME280;58098;51.680;5.134;2023-08-12T02:27:29;101697.22;;;20.05;100.00
70546;BME280;58098;51.680;5.134;2023-08-12T02:29:54;101679.34;;;20.07;100.00
70546;BME280;58098;51.680;5.134;2023-08-12T02:32:20;101675.50;;;20.02;100.00
70546;BME280;58098;51.680;5.134;2023-08-12T02:34:45;101665.41;;;19.97;100.00
70546;BME280;58098;51.680;5.134;2023-08-12T02:37:10;101673.53;;;20.04;100.00
70546;BME280;58098;51.680;5.134;2023-08-12T02:39:38;101670.38;;;20.08;100.00
70546;BME280;58098;51.680;5.134;2023-08-12T02:42:03;101667.06;;;20.06;100.00
70546;BME280;58098;51.680;5.134;2023-08-12T02:44:29;101672.38;;;20.06;100.00
70546;BME280;58098;51.680;5.134;2023-08-12T02:46:54;101664.25;;;20.00;100.00
70546;BME280;58098;51.680;5.134;2023-08-12T02:49:19;101668.22;;;20.04;100.00
70546;BME280;58098;51.680;5.134;2023-08-12T02:51:45;101658.63;;;20.03;100.00
70546;BME280;58098;51.680;5.134;2023-08-12T02:54:10;101639.88;;;19.88;100.00
70546;BME280;58098;51.680;5.134;2023-08-12T02:56:35;101651.50;;;19.95;100.00
70546;BME280;58098;51.680;5.134;2023-08-12T02:59:01;101653.13;;;19.96;100.00
70546;BME280;58098;51.680;5.134;2023-08-12T03:01:26;101647.50;;;19.91;100.00
70546;BME280;58098;51.680;5.134;2023-08-12T03:03:52;101651.16;;;19.90;100.00
70546;BME280;58098;51.680;5.134;2023-08-12T03:06:18;101638.22;;;19.87;100.00
70546;BME280;58098;51.680;5.134;2023-08-12T03:08:43;101633.91;;;19.86;100.00
70546;BME280;58098;51.680;5.134;2023-08-12T03:11:08;101622.16;;;19.81;100.00
70546;BME280;58098;51.680;5.134;2023-08-12T03:13:34;101629.75;;;19.84;100.00
70546;BME280;58098;51.680;5.134;2023-08-12T03:15:59;101618.50;;;19.73;100.00
70546;BME280;58098;51.680;5.134;2023-08-12T03:18:24;101634.56;;;19.80;100.00
70546;BME280;58098;51.680;5.134;2023-08-12T03:20:50;101634.38;;;19.73;100.00
70546;BME280;58098;51.680;5.134;2023-08-12T03:23:15;101632.88;;;19.79;100.00
70546;BME280;58098;51.680;5.134;2023-08-12T03:25:41;101636.19;;;19.81;100.00
70546;BME280;58098;51.680;5.134;2023-08-12T03:28:06;101629.25;;;19.80;100.00
70546;BME280;58098;51.680;5.134;2023-08-12T03:30:31;101617.81;;;19.80;100.00
70546;BME280;58098;51.680;5.134;2023-08-12T03:32:57;101611.34;;;19.74;100.00
70546;BME280;58098;51.680;5.134;2023-08-12T03:35:22;101609.22;;;19.77;100.00
70546;BME280;58098;51.680;5.134;2023-08-12T03:37:48;101611.03;;;19.77;100.00
70546;BME280;58098;51.680;5.134;2023-08-12T03:40:13;101597.63;;;19.70;100.00
70546;BME280;58098;51.680;5.134;2023-08-12T03:42:38;101600.41;;;19.69;100.00
70546;BME280;58098;51.680;5.134;2023-08-12T03:45:04;101600.56;;;19.67;100.00
70546;BME280;58098;51.680;5.134;2023-08-12T03:47:30;101585.81;;;19.57;100.00
70546;BME280;58098;51.680;5.134;2023-08-12T03:49:55;101600.41;;;19.61;100.00
70546;BME280;58098;51.680;5.134;2023-08-12T03:52:21;101597.41;;;19.64;100.00
70546;BME280;58098;51.680;5.134;2023-08-12T03:54:46;101587.78;;;19.55;100.00
70546;BME280;58098;51.680;5.134;2023-08-12T03:57:12;101594.59;;;19.57;100.00
70546;BME280;58098;51.680;5.134;2023-08-12T03:59:37;101602.03;;;19.62;100.00
70546;BME280;58098;51.680;5.134;2023-08-12T04:02:02;101590.13;;;19.58;100.00
70546;BME280;58098;51.680;5.134;2023-08-12T04:04:29;101591.94;;;19.57;100.00
70546;BME280;58098;51.680;5.134;2023-08-12T04:06:54;101577.50;;;19.52;100.00
70546;BME280;58098;51.680;5.134;2023-08-12T04:09:20;101576.84;;;19.50;100.00
70546;BME280;58098;51.680;5.134;2023-08-12T04:11:46;101591.44;;;19.54;100.00
70546;BME280;58098;51.680;5.134;2023-08-12T04:14:14;101582.50;;;19.55;100.00
70546;BME280;58098;51.680;5.134;2023-08-12T04:16:40;101569.25;;;19.55;100.00
70546;BME280;58098;51.680;5.134;2023-08-12T04:19:05;101566.59;;;19.55;100.00
70546;BME280;58098;51.680;5.134;2023-08-12T04:21:31;101546.41;;;19.46;100.00
70546;BME280;58098;51.680;5.134;2023-08-12T04:23:56;101533.19;;;19.54;100.00
70546;BME280;58098;51.680;5.134;2023-08-12T04:26:21;101524.91;;;19.49;100.00
70546;BME280;58098;51.680;5.134;2023-08-12T04:28:47;101541.94;;;19.46;100.00
70546;BME280;58098;51.680;5.134;2023-08-12T04:31:12;101551.34;;;19.41;100.00
70546;BME280;58098;51.680;5.134;2023-08-12T04:33:37;101542.06;;;19.37;100.00
70546;BME280;58098;51.680;5.134;2023-08-12T04:36:03;101559.28;;;19.41;100.00
70546;BME280;58098;51.680;5.134;2023-08-12T04:38:28;101544.03;;;19.35;100.00
70546;BME280;58098;51.680;5.134;2023-08-12T04:40:54;101553.00;;;19.42;100.00
70546;BME280;58098;51.680;5.134;2023-08-12T04:43:20;101549.28;;;19.27;100.00
70546;BME280;58098;51.680;5.134;2023-08-12T04:45:46;101552.25;;;19.24;100.00
70546;BME280;58098;51.680;5.134;2023-08-12T04:48:12;101550.63;;;19.31;100.00
70546;BME280;58098;51.680;5.134;2023-08-12T04:50:37;101554.72;;;19.25;100.00
70546;BME280;58098;51.680;5.134;2023-08-12T04:53:06;101546.56;;;19.10;100.00
70546;BME280;58098;51.680;5.134;2023-08-12T04:55:31;101554.84;;;19.16;100.00
70546;BME280;58098;51.680;5.134;2023-08-12T04:57:57;101549.91;;;19.21;100.00
70546;BME280;58098;51.680;5.134;2023-08-12T05:00:23;101550.56;;;19.15;100.00
70546;BME280;58098;51.680;5.134;2023-08-12T05:02:48;101550.69;;;19.13;100.00
70546;BME280;58098;51.680;5.134;2023-08-12T05:05:14;101552.38;;;19.14;100.00
70546;BME280;58098;51.680;5.134;2023-08-12T05:07:40;101535.03;;;19.20;100.00
70546;BME280;58098;51.680;5.134;2023-08-12T05:10:05;101523.88;;;19.08;100.00
70546;BME280;58098;51.680;5.134;2023-08-12T05:12:30;101520.44;;;19.07;100.00
70546;BME280;58098;51.680;5.134;2023-08-12T05:14:56;101512.50;;;19.07;100.00
70546;BME280;58098;51.680;5.134;2023-08-12T05:17:21;101523.09;;;19.16;100.00
70546;BME280;58098;51.680;5.134;2023-08-12T05:19:47;101520.09;;;19.10;100.00
70546;BME280;58098;51.680;5.134;2023-08-12T05:22:13;101517.78;;;19.07;100.00
70546;BME280;58098;51.680;5.134;2023-08-12T05:24:38;101501.88;;;18.99;100.00
70546;BME280;58098;51.680;5.134;2023-08-12T05:27:03;101517.78;;;19.07;100.00
70546;BME280;58098;51.680;5.134;2023-08-12T05:29:30;101513.47;;;19.06;100.00
70546;BME280;58098;51.680;5.134;2023-08-12T05:31:55;101507.22;;;19.07;100.00
70546;BME280;58098;51.680;5.134;2023-08-12T05:34:20;101507.03;;;19.09;100.00
70546;BME280;58098;51.680;5.134;2023-08-12T05:36:46;101505.72;;;19.05;100.00
70546;BME280;58098;51.680;5.134;2023-08-12T05:39:11;101499.59;;;19.04;100.00
70546;BME280;58098;51.680;5.134;2023-08-12T05:41:37;101500.91;;;19.00;100.00
70546;BME280;58098;51.680;5.134;2023-08-12T05:44:02;101491.28;;;18.99;100.00
70546;BME280;58098;51.680;5.134;2023-08-12T05:46:28;101509.84;;;19.07;100.00
70546;BME280;58098;51.680;5.134;2023-08-12T05:48:53;101504.06;;;19.12;100.00
70546;BME280;58098;51.680;5.134;2023-08-12T05:51:19;101494.81;;;19.16;100.00
70546;BME280;58098;51.680;5.134;2023-08-12T05:53:44;101487.22;;;19.21;100.00
70546;BME280;58098;51.680;5.134;2023-08-12T05:56:10;101495.69;;;19.25;100.00
70546;BME280;58098;51.680;5.134;2023-08-12T05:58:35;101490.22;;;19.26;100.00
70546;BME280;58098;51.680;5.134;2023-08-12T06:01:00;101487.56;;;19.26;100.00
70546;BME280;58098;51.680;5.134;2023-08-12T06:03:26;101488.09;;;19.30;100.00
70546;BME280;58098;51.680;5.134;2023-08-12T06:05:51;101481.13;;;19.29;100.00
70546;BME280;58098;51.680;5.134;2023-08-12T06:08:16;101481.97;;;19.29;100.00
70546;BME280;58098;51.680;5.134;2023-08-12T06:10:43;101484.78;;;19.36;100.00
70546;BME280;58098;51.680;5.134;2023-08-12T06:13:08;101483.84;;;19.37;100.00
70546;BME280;58098;51.680;5.134;2023-08-12T06:15:34;101487.81;;;19.41;100.00
70546;BME280;58098;51.680;5.134;2023-08-12T06:18:00;101496.06;;;19.38;100.00
70546;BME280;58098;51.680;5.134;2023-08-12T06:20:26;101475.84;;;19.29;100.00
70546;BME280;58098;51.680;5.134;2023-08-12T06:22:52;101484.97;;;19.34;100.00
70546;BME280;58098;51.680;5.134;2023-08-12T06:25:18;101473.03;;;19.30;100.00
70546;BME280;58098;51.680;5.134;2023-08-12T06:27:44;101487.44;;;19.36;100.00
70546;BME280;58098;51.680;5.134;2023-08-12T06:30:10;101474.16;;;19.28;100.00
70546;BME280;58098;51.680;5.134;2023-08-12T06:32:36;101484.25;;;19.24;100.00
70546;BME280;58098;51.680;5.134;2023-08-12T06:35:02;101471.19;;;19.23;100.00
70546;BME280;58098;51.680;5.134;2023-08-12T06:37:28;101474.53;;;19.25;100.00
70546;BME280;58098;51.680;5.134;2023-08-12T06:39:53;101470.19;;;19.24;100.00
70546;BME280;58098;51.680;5.134;2023-08-12T06:42:18;101474.34;;;19.26;100.00
70546;BME280;58098;51.680;5.134;2023-08-12T06:44:45;101475.84;;;19.29;100.00
70546;BME280;58098;51.680;5.134;2023-08-12T06:47:10;101466.56;;;19.33;100.00
70546;BME280;58098;51.680;5.134;2023-08-12T06:49:36;101459.66;;;19.32;100.00
70546;BME280;58098;51.680;5.134;2023-08-12T06:52:01;101462.94;;;19.34;100.00
70546;BME280;58098;51.680;5.134;2023-08-12T06:54:27;101471.41;;;19.37;100.00
70546;BME280;58098;51.680;5.134;2023-08-12T06:56:52;101472.09;;;19.39;100.00
70546;BME280;58098;51.680;5.134;2023-08-12T06:59:17;101454.00;;;19.27;100.00
70546;BME280;58098;51.680;5.134;2023-08-12T07:01:43;101463.94;;;19.33;100.00
70546;BME280;58098;51.680;5.134;2023-08-12T07:04:08;101456.81;;;19.33;100.00
70546;BME280;58098;51.680;5.134;2023-08-12T07:06:33;101455.31;;;19.31;100.00
70546;BME280;58098;51.680;5.134;2023-08-12T07:08:59;101460.19;;;19.43;100.00
70546;BME280;58098;51.680;5.134;2023-08-12T07:11:24;101461.34;;;19.49;100.00
70546;BME280;58098;51.680;5.134;2023-08-12T07:13:50;101464.66;;;19.51;100.00
70546;BME280;58098;51.680;5.134;2023-08-12T07:16:15;101450.41;;;19.52;100.00
70546;BME280;58098;51.680;5.134;2023-08-12T07:18:40;101464.34;;;19.54;100.00
70546;BME280;58098;51.680;5.134;2023-08-12T07:21:06;101461.69;;;19.54;100.00
70546;BME280;58098;51.680;5.134;2023-08-12T07:23:31;101464.66;;;19.51;100.00
70546;BME280;58098;51.680;5.134;2023-08-12T07:25:56;101461.69;;;19.46;100.00
70546;BME280;58098;51.680;5.134;2023-08-12T07:28:22;101469.28;;;19.41;100.00
70546;BME280;58098;51.680;5.134;2023-08-12T07:30:48;101467.59;;;19.40;100.00
70546;BME280;58098;51.680;5.134;2023-08-12T07:33:15;101458.69;;;19.41;100.00
70546;BME280;58098;51.680;5.134;2023-08-12T07:35:40;101453.34;;;19.33;100.00
70546;BME280;58098;51.680;5.134;2023-08-12T07:38:06;101446.59;;;19.38;100.00
70546;BME280;58098;51.680;5.134;2023-08-12T07:40:31;101457.69;;;19.50;100.00
70546;BME280;58098;51.680;5.134;2023-08-12T07:42:57;101450.09;;;19.55;100.00
70546;BME280;58098;51.680;5.134;2023-08-12T07:45:22;101444.81;;;19.55;100.00
70546;BME280;58098;51.680;5.134;2023-08-12T07:47:48;101441.66;;;19.59;100.00
70546;BME280;58098;51.680;5.134;2023-08-12T07:50:14;101457.38;;;19.69;100.00
70546;BME280;58098;51.680;5.134;2023-08-12T07:52:40;101457.06;;;19.72;100.00
70546;BME280;58098;51.680;5.134;2023-08-12T07:55:05;101456.75;;;19.75;100.00
70546;BME280;58098;51.680;5.134;2023-08-12T07:57:31;101452.44;;;19.66;100.00
70546;BME280;58098;51.680;5.134;2023-08-12T07:59:57;101457.56;;;19.75;100.00
70546;BME280;58098;51.680;5.134;2023-08-12T08:02:22;101467.66;;;19.80;100.00
70546;BME280;58098;51.680;5.134;2023-08-12T08:04:48;101457.41;;;19.77;100.00
70546;BME280;58098;51.680;5.134;2023-08-12T08:07:15;101455.41;;;19.79;100.00
70546;BME280;58098;51.680;5.134;2023-08-12T08:09:41;101479.59;;;19.76;100.00
70546;BME280;58098;51.680;5.134;2023-08-12T08:12:08;101477.59;;;19.78;100.00
70546;BME280;58098;51.680;5.134;2023-08-12T08:14:33;101487.38;;;19.94;100.00
70546;BME280;58098;51.680;5.134;2023-08-12T08:16:59;101488.50;;;20.15;100.00
70546;BME280;58098;51.680;5.134;2023-08-12T08:19:24;101495.00;;;20.29;100.00
70546;BME280;58098;51.680;5.134;2023-08-12T08:21:49;101493.66;;;20.25;100.00
70546;BME280;58098;51.680;5.134;2023-08-12T08:24:15;101485.84;;;20.15;100.00
70546;BME280;58098;51.680;5.134;2023-08-12T08:26:40;101500.13;;;20.14;100.00
70546;BME280;58098;51.680;5.134;2023-08-12T08:29:06;101514.38;;;20.05;100.00
70546;BME280;58098;51.680;5.134;2023-08-12T08:31:31;101502.59;;;19.67;100.00
70546;BME280;58098;51.680;5.134;2023-08-12T08:33:56;101523.75;;;19.59;100.00
70546;BME280;58098;51.680;5.134;2023-08-12T08:36:22;101525.16;;;19.30;100.00
70546;BME280;58098;51.680;5.134;2023-08-12T08:38:48;101517.81;;;19.16;100.00
70546;BME280;58098;51.680;5.134;2023-08-12T08:41:16;101542.75;;;19.13;100.00
70546;BME280;58098;51.680;5.134;2023-08-12T08:43:42;101555.88;;;19.23;100.00
70546;BME280;58098;51.680;5.134;2023-08-12T08:46:10;101531.78;;;19.34;100.00
70546;BME280;58098;51.680;5.134;2023-08-12T08:48:39;101532.34;;;19.53;100.00
70546;BME280;58098;51.680;5.134;2023-08-12T08:51:05;101553.94;;;19.91;100.00
70546;BME280;58098;51.680;5.134;2023-08-12T08:53:31;101532.91;;;20.13;100.00
70546;BME280;58098;51.680;5.134;2023-08-12T08:55:57;101519.34;;;20.16;100.00
70546;BME280;58098;51.680;5.134;2023-08-12T08:58:24;101542.03;;;20.51;100.00
70546;BME280;58098;51.680;5.134;2023-08-12T09:00:49;101559.09;;;20.57;100.00
70546;BME280;58098;51.680;5.134;2023-08-12T09:03:15;101573.00;;;20.75;100.00
70546;BME280;58098;51.680;5.134;2023-08-12T09:05:42;101586.56;;;20.88;100.00
70546;BME280;58098;51.680;5.134;2023-08-12T09:08:09;101563.88;;;20.77;100.00
70546;BME280;58098;51.680;5.134;2023-08-12T09:10:37;101574.59;;;20.92;100.00
70546;BME280;58098;51.680;5.134;2023-08-12T09:13:04;101590.19;;;20.95;100.00
70546;BME280;58098;51.680;5.134;2023-08-12T09:15:29;101587.22;;;20.90;100.00
70546;BME280;58098;51.680;5.134;2023-08-12T09:17:55;101606.47;;;20.84;100.00
70546;BME280;58098;51.680;5.134;2023-08-12T09:20:21;101575.34;;;20.54;100.00
70546;BME280;58098;51.680;5.134;2023-08-12T09:22:55;101608.50;;;20.66;100.00
70546;BME280;58098;51.680;5.134;2023-08-12T09:25:22;101610.81;;;20.36;100.00
70546;BME280;58098;51.680;5.134;2023-08-12T09:27:48;101614.16;;;20.47;100.00
70546;BME280;58098;51.680;5.134;2023-08-12T09:30:13;101591.44;;;20.36;100.00
70546;BME280;58098;51.680;5.134;2023-08-12T09:32:39;101604.19;;;20.40;100.00
70546;BME280;58098;51.680;5.134;2023-08-12T09:35:05;101591.88;;;20.72;100.00
70546;BME280;58098;51.680;5.134;2023-08-12T09:37:31;101586.06;;;20.76;100.00
70546;BME280;58098;51.680;5.134;2023-08-12T09:39:57;101597.19;;;20.88;100.00
70546;BME280;58098;51.680;5.134;2023-08-12T09:42:23;101608.78;;;20.95;100.00
70546;BME280;58098;51.680;5.134;2023-08-12T09:44:48;101599.78;;;21.04;100.00
70546;BME280;58098;51.680;5.134;2023-08-12T09:47:14;101604.94;;;21.14;100.00
70546;BME280;58098;51.680;5.134;2023-08-12T09:49:40;101600.72;;;21.27;100.00
70546;BME280;58098;51.680;5.134;2023-08-12T09:52:06;101617.91;;;21.47;100.00
70546;BME280;58098;51.680;5.134;2023-08-12T09:54:33;101609.47;;;21.44;100.00
70546;BME280;58098;51.680;5.134;2023-08-12T09:57:00;101610.44;;;21.51;100.00
70546;BME280;58098;51.680;5.134;2023-08-12T09:59:33;101610.16;;;21.68;100.00
70546;BME280;58098;51.680;5.134;2023-08-12T10:02:04;101603.28;;;21.82;100.00
70546;BME280;58098;51.680;5.134;2023-08-12T10:04:39;101605.41;;;21.95;100.00
70546;BME280;58098;51.680;5.134;2023-08-12T10:07:09;101613.91;;;21.82;100.00
70546;BME280;58098;51.680;5.134;2023-08-12T10:09:36;101607.22;;;21.63;100.00
70546;BME280;58098;51.680;5.134;2023-08-12T10:12:01;101612.81;;;21.68;100.00
70546;BME280;58098;51.680;5.134;2023-08-12T10:14:28;101610.16;;;21.68;100.00
70546;BME280;58098;51.680;5.134;2023-08-12T10:16:55;101612.97;;;21.75;100.00
70546;BME280;58098;51.680;5.134;2023-08-12T10:19:20;101607.91;;;21.88;100.00
70546;BME280;58098;51.680;5.134;2023-08-12T10:21:48;101614.13;;;22.03;100.00
70546;BME280;58098;51.680;5.134;2023-08-12T10:24:16;101600.81;;;22.11;100.00
70546;BME280;58098;51.680;5.134;2023-08-12T10:26:42;101605.19;;;22.04;100.00
70546;BME280;58098;51.680;5.134;2023-08-12T10:29:08;101598.59;;;22.15;100.00
70546;BME280;58098;51.680;5.134;2023-08-12T10:31:33;101617.19;;;22.60;100.00
70546;BME280;58098;51.680;5.134;2023-08-12T10:33:59;101603.97;;;22.89;100.00
70546;BME280;58098;51.680;5.134;2023-08-12T10:36:26;101615.03;;;22.78;100.00
70546;BME280;58098;51.680;5.134;2023-08-12T10:38:52;101623.22;;;22.54;100.00
70546;BME280;58098;51.680;5.134;2023-08-12T10:41:19;101628.94;;;22.28;100.00
70546;BME280;58098;51.680;5.134;2023-08-12T10:44:02;101611.78;;;22.31;100.00
70546;BME280;58098;51.680;5.134;2023-08-12T10:49:05;101632.09;;;22.69;100.00
70546;BME280;58098;51.680;5.134;2023-08-12T10:51:51;101631.16;;;23.14;100.00
70546;BME280;58098;51.680;5.134;2023-08-12T10:54:23;101633.72;;;23.22;100.00
70546;BME280;58098;51.680;5.134;2023-08-12T10:57:09;101620.09;;;23.61;100.00
70546;BME280;58098;51.680;5.134;2023-08-12T11:02:20;101631.44;;;23.63;100.00
70546;BME280;58098;51.680;5.134;2023-08-12T11:04:55;101626.78;;;23.72;100.00
70546;BME280;58098;51.680;5.134;2023-08-12T11:07:27;101617.34;;;23.69;100.00
70546;BME280;58098;51.680;5.134;2023-08-12T11:09:59;101626.03;;;23.92;100.00
70546;BME280;58098;51.680;5.134;2023-08-12T11:12:33;101622.44;;;23.85;100.00
70546;BME280;58098;51.680;5.134;2023-08-12T11:15:00;101632.47;;;23.83;100.00
70546;BME280;58098;51.680;5.134;2023-08-12T11:19:59;101615.19;;;23.79;100.00
70546;BME280;58098;51.680;5.134;2023-08-12T11:22:25;101617.34;;;23.90;100.00
70546;BME280;58098;51.680;5.134;2023-08-12T11:24:50;101619.00;;;23.70;100.00
70546;BME280;58098;51.680;5.134;2023-08-12T11:27:17;101632.88;;;23.51;100.00
70546;BME280;58098;51.680;5.134;2023-08-12T11:29:43;101620.59;;;23.50;100.00
70546;BME280;58098;51.680;5.134;2023-08-12T11:32:09;101634.06;;;23.78;100.00
70546;BME280;58098;51.680;5.134;2023-08-12T11:34:34;101620.81;;;24.05;100.00
70546;BME280;58098;51.680;5.134;2023-08-12T11:37:00;101624.50;;;24.47;100.00
70546;BME280;58098;51.680;5.134;2023-08-12T11:39:26;101619.63;;;24.50;100.00
70546;BME280;58098;51.680;5.134;2023-08-12T11:41:52;101609.00;;;24.57;100.00
70546;BME280;58098;51.680;5.134;2023-08-12T11:44:21;101611.25;;;24.81;100.00
70546;BME280;58098;51.680;5.134;2023-08-12T11:46:47;101604.81;;;24.75;100.00
70546;BME280;58098;51.680;5.134;2023-08-12T11:49:12;101606.69;;;24.75;100.00
70546;BME280;58098;51.680;5.134;2023-08-12T11:51:38;101627.09;;;24.61;100.00
70546;BME280;58098;51.680;5.134;2023-08-12T11:54:03;101630.09;;;24.52;100.00
70546;BME280;58098;51.680;5.134;2023-08-12T11:56:29;101617.47;;;24.18;100.00
70546;BME280;58098;51.680;5.134;2023-08-12T11:58:55;101611.38;;;24.24;100.00
70546;BME280;58098;51.680;5.134;2023-08-12T12:01:21;101608.78;;;24.31;100.00
70546;BME280;58098;51.680;5.134;2023-08-12T12:03:52;101614.47;;;24.76;100.00
70546;BME280;58098;51.680;5.134;2023-08-12T12:06:28;101610.31;;;24.67;100.00
70546;BME280;58098;51.680;5.134;2023-08-12T12:08:53;101618.50;;;24.66;100.00
70546;BME280;58098;51.680;5.134;2023-08-12T12:11:19;101616.97;;;24.78;100.00
70546;BME280;58098;51.680;5.134;2023-08-12T12:13:45;101621.56;;;24.84;100.00
70546;BME280;58098;51.680;5.134;2023-08-12T12:16:12;101608.06;;;24.92;100.00
70546;BME280;58098;51.680;5.134;2023-08-12T12:18:38;101614.03;;;24.73;100.00
70546;BME280;58098;51.680;5.134;2023-08-12T12:21:03;101614.94;;;24.80;100.00
70546;BME280;58098;51.680;5.134;2023-08-12T12:23:29;101608.94;;;25.40;100.00
70546;BME280;58098;51.680;5.134;2023-08-12T12:26:02;101618.75;;;25.74;100.00
70546;BME280;58098;51.680;5.134;2023-08-12T12:28:27;101624.84;;;25.54;100.00
70546;BME280;58098;51.680;5.134;2023-08-12T12:30:54;101624.03;;;25.61;100.00
70546;BME280;58098;51.680;5.134;2023-08-12T12:33:19;101622.53;;;25.99;100.00
70546;BME280;58098;51.680;5.134;2023-08-12T12:35:45;101638.03;;;26.23;100.00
70546;BME280;58098;51.680;5.134;2023-08-12T12:38:10;101629.50;;;26.00;100.00
70546;BME280;58098;51.680;5.134;2023-08-12T12:40:36;101618.63;;;26.08;100.00
70546;BME280;58098;51.680;5.134;2023-08-12T12:43:03;101615.06;;;25.88;100.00